createdAt,value
2023-04-30T00:02:46.814Z,97239.56
2023-04-30T00:06:50.330Z,97200.41
2023-04-30T00:10:51.919Z,97250.53
2023-04-30T00:14:52.713Z,97248.13
2023-04-30T00:18:53.116Z,97241.16
2023-04-30T00:22:56.427Z,97180.56
2023-04-30T00:26:57.112Z,97198.81
2023-04-30T00:30:57.800Z,97251.63
2023-04-30T00:34:58.215Z,97191.81
2023-04-30T00:39:01.181Z,97214.84
2023-04-30T00:43:01.377Z,97198.75
2023-04-30T00:47:04.165Z,97235.78
2023-04-30T00:51:07.576Z,97247.06
2023-04-30T00:55:12.396Z,97249.19
2023-04-30T00:59:13.713Z,97255.09
2023-04-30T01:03:14.091Z,97251.88
2023-04-30T01:07:14.613Z,97267.16
2023-04-30T01:11:27.261Z,97267.94
2023-04-30T01:15:37.827Z,97275.97
2023-04-30T01:19:45.448Z,97237.28
2023-04-30T01:24:09.424Z,97275.06
2023-04-30T01:28:17.623Z,97286.59
2023-04-30T01:32:18.641Z,97274.78
2023-04-30T01:36:38.029Z,97279.06
2023-04-30T01:40:56.106Z,97277.13
2023-04-30T01:45:25.884Z,97296.22
2023-04-30T01:49:41.057Z,97256.56
2023-04-30T01:53:47.385Z,97283.31
2023-04-30T01:57:58.690Z,97289.41
2023-04-30T02:02:01.874Z,97284.91
2023-04-30T02:06:02.194Z,97290.28
2023-04-30T02:10:02.481Z,97276.03
2023-04-30T02:14:03.252Z,97295.06
2023-04-30T02:18:06.260Z,97303.44
2023-04-30T02:22:06.494Z,97308.50
2023-04-30T02:26:06.700Z,97298.34
2023-04-30T02:30:08.384Z,97300.53
2023-04-30T02:34:11.284Z,97317.16
2023-04-30T02:38:11.529Z,97316.88
2023-04-30T02:42:11.766Z,97296.72
2023-04-30T02:46:12.075Z,97304.25
2023-04-30T02:50:15.078Z,97234.81
2023-04-30T02:54:15.437Z,97315.03
2023-04-30T02:58:15.880Z,97312.91
2023-04-30T03:02:16.973Z,97317.47
2023-04-30T03:06:20.072Z,97268.63
2023-04-30T03:10:20.485Z,97330.91
2023-04-30T03:14:21.094Z,97273.41
2023-04-30T03:18:22.468Z,97268.47
2023-04-30T03:22:26.876Z,97312.44
2023-04-30T03:26:27.460Z,97330.47
2023-04-30T03:30:28.077Z,97311.63
2023-04-30T03:34:28.719Z,97325.53
2023-04-30T03:38:31.727Z,97313.91
2023-04-30T03:42:32.004Z,97337.38
2023-04-30T03:46:32.480Z,97336.81
2023-04-30T03:50:33.099Z,97312.03
2023-04-30T03:54:36.664Z,97334.41
2023-04-30T03:58:39.111Z,97323.97
2023-04-30T04:02:39.571Z,97327.66
2023-04-30T04:06:42.735Z,97326.09
2023-04-30T04:10:46.007Z,97307.06
2023-04-30T04:14:46.505Z,97324.25
2023-04-30T04:18:47.288Z,97323.38
2023-04-30T04:22:47.737Z,97333.38
2023-04-30T04:26:50.845Z,97338.53
2023-04-30T04:30:51.311Z,97345.53
2023-04-30T04:34:51.649Z,97342.63
2023-04-30T04:38:51.998Z,97348.78
2023-04-30T04:42:56.045Z,97339.72
2023-04-30T04:46:56.976Z,97308.03
2023-04-30T04:50:57.997Z,97342.47
2023-04-30T04:54:58.861Z,97357.53
2023-04-30T04:59:03.014Z,97368.25
2023-04-30T05:03:03.473Z,97351.38
2023-04-30T05:07:04.182Z,97277.91
2023-04-30T05:11:04.633Z,97357.56
2023-04-30T05:15:08.978Z,97361.84
2023-04-30T05:19:09.962Z,97249.47
2023-04-30T05:23:11.135Z,97276.53
2023-04-30T05:27:12.013Z,97325.88
2023-04-30T05:31:14.885Z,97348.94
2023-04-30T05:35:15.309Z,97342.00
2023-04-30T05:39:15.476Z,97350.50
2023-04-30T05:43:16.309Z,97357.53
2023-04-30T05:47:19.458Z,97354.03
2023-04-30T05:51:19.678Z,97358.34
2023-04-30T05:55:20.509Z,97367.97
2023-04-30T05:59:20.823Z,97365.34
2023-04-30T06:03:24.178Z,97373.13
2023-04-30T06:07:25.126Z,97378.22
2023-04-30T06:11:25.843Z,97332.31
2023-04-30T06:15:26.205Z,97366.94
2023-04-30T06:19:29.179Z,97384.88
2023-04-30T06:23:29.416Z,97377.41
2023-04-30T06:27:30.039Z,97365.84
2023-04-30T06:31:30.592Z,97356.22
2023-04-30T06:35:33.553Z,97374.19
2023-04-30T06:39:33.730Z,97373.66
2023-04-30T06:43:33.956Z,97324.28
2023-04-30T06:47:36.493Z,97358.66
2023-04-30T06:51:39.529Z,97371.41
2023-04-30T06:55:39.631Z,97324.09
2023-04-30T06:59:40.018Z,97375.72
2023-04-30T07:03:40.331Z,97375.56
2023-04-30T07:07:43.947Z,97384.22
2023-04-30T07:11:44.499Z,97385.44
2023-04-30T07:15:45.931Z,97379.47
2023-04-30T07:19:46.974Z,97355.34
2023-04-30T07:23:51.740Z,97378.91
2023-04-30T07:27:51.930Z,97370.19
2023-04-30T07:31:52.100Z,97359.41
2023-04-30T07:35:52.779Z,97361.84
2023-04-30T07:39:55.785Z,97378.94
2023-04-30T07:43:57.003Z,97381.72
2023-04-30T07:47:57.286Z,97370.56
2023-04-30T07:51:57.803Z,97372.34
2023-04-30T07:56:00.621Z,97373.28
2023-04-30T08:00:01.180Z,97378.34
2023-04-30T08:04:01.638Z,97373.19
2023-04-30T08:08:02.094Z,97370.34
2023-04-30T08:12:05.265Z,97390.53
2023-04-30T08:16:05.566Z,97373.63
2023-04-30T08:20:09.756Z,97374.00
2023-04-30T08:24:10.005Z,97362.53
2023-04-30T08:28:12.981Z,97366.63
2023-04-30T08:32:13.349Z,97370.72
2023-04-30T08:36:13.774Z,97364.69
2023-04-30T08:40:16.676Z,97366.53
2023-04-30T08:44:19.835Z,97358.03
2023-04-30T08:48:23.730Z,97348.56
2023-04-30T08:52:26.082Z,97357.47
2023-04-30T08:56:26.601Z,97353.41
2023-04-30T09:00:30.380Z,97352.16
2023-04-30T09:04:30.865Z,97350.09
2023-04-30T09:08:47.143Z,97351.59
2023-04-30T09:13:01.636Z,97340.31
2023-04-30T09:17:04.520Z,97318.50
2023-04-30T09:21:08.379Z,97323.16
2023-04-30T09:25:11.534Z,97345.78
2023-04-30T09:29:11.994Z,97339.97
2023-04-30T09:33:15.022Z,97345.00
2023-04-30T09:37:16.127Z,97318.03
2023-04-30T09:41:29.181Z,97346.47
2023-04-30T09:45:30.761Z,97331.50
2023-04-30T09:49:35.076Z,97331.88
2023-04-30T09:53:40.872Z,97314.19
2023-04-30T09:57:41.519Z,97339.16
2023-04-30T10:01:42.716Z,97333.63
2023-04-30T10:05:48.859Z,97299.06
2023-04-30T10:09:54.270Z,97329.94
2023-04-30T10:14:02.220Z,97332.28
2023-04-30T10:18:09.196Z,97329.63
2023-04-30T10:22:13.659Z,97321.53
2023-04-30T10:26:14.415Z,97320.03
2023-04-30T10:30:16.613Z,97302.03
2023-04-30T10:34:31.925Z,97294.22
2023-04-30T10:38:38.331Z,97275.03
2023-04-30T10:42:40.179Z,97293.91
2023-04-30T10:46:41.321Z,97276.81
2023-04-30T10:50:47.030Z,97295.16
2023-04-30T10:54:53.779Z,97268.22
2023-04-30T10:58:54.395Z,97287.56
2023-04-30T11:03:10.727Z,97288.53
2023-04-30T11:07:13.750Z,97278.88
2023-04-30T11:11:24.168Z,97266.25
2023-04-30T11:15:28.617Z,97279.97
2023-04-30T11:19:30.853Z,97266.78
2023-04-30T11:23:39.401Z,97275.75
2023-04-30T11:27:46.851Z,97273.91
2023-04-30T11:31:48.111Z,97273.50
2023-04-30T11:35:49.636Z,97262.22
2023-04-30T11:39:51.453Z,97263.25
2023-04-30T11:43:54.320Z,97270.72
2023-04-30T11:47:57.899Z,97263.88
2023-04-30T11:51:59.047Z,97265.16
2023-04-30T11:55:59.545Z,97249.91
2023-04-30T12:00:15.720Z,97244.59
2023-04-30T12:04:17.341Z,97247.28
2023-04-30T12:08:17.933Z,97232.38
2023-04-30T12:12:28.989Z,97247.47
2023-04-30T12:16:42.933Z,97230.25
2023-04-30T12:20:44.502Z,97238.41
2023-04-30T12:24:46.172Z,97242.69
2023-04-30T12:28:46.492Z,97243.88
2023-04-30T12:32:54.121Z,97233.50
2023-04-30T12:36:54.678Z,97232.63
2023-04-30T12:40:55.210Z,97234.56
2023-04-30T12:44:55.470Z,97218.72
2023-04-30T12:49:00.171Z,97233.34
2023-04-30T12:53:05.692Z,97214.44
2023-04-30T12:57:08.621Z,97211.97
2023-04-30T13:01:14.275Z,97220.84
2023-04-30T13:05:17.395Z,97223.25
2023-04-30T13:09:17.718Z,97216.56
2023-04-30T13:13:21.674Z,97200.75
2023-04-30T13:17:22.906Z,97198.75
2023-04-30T13:21:25.750Z,97176.00
2023-04-30T13:25:26.030Z,97193.31
2023-04-30T13:29:26.386Z,97162.75
2023-04-30T13:33:26.962Z,97191.44
2023-04-30T13:37:32.247Z,97188.09
2023-04-30T13:41:32.356Z,97197.50
2023-04-30T13:45:32.899Z,97183.84
2023-04-30T13:49:33.112Z,97176.47
2023-04-30T13:53:36.853Z,97177.22
2023-04-30T13:57:37.018Z,97164.91
2023-04-30T14:01:38.230Z,97164.84
2023-04-30T14:05:39.541Z,97150.97
2023-04-30T14:09:42.475Z,97170.44
2023-04-30T14:13:42.623Z,97166.13
2023-04-30T14:17:42.756Z,97173.06
2023-04-30T14:21:43.066Z,97166.00
2023-04-30T14:25:46.190Z,97164.50
2023-04-30T14:29:46.469Z,97140.22
2023-04-30T14:33:46.888Z,97134.13
2023-04-30T14:37:47.284Z,97141.22
2023-04-30T14:41:51.590Z,97123.78
2023-04-30T14:45:52.058Z,97126.66
2023-04-30T14:49:53.655Z,97108.22
2023-04-30T14:53:54.168Z,97133.97
2023-04-30T14:57:56.964Z,97130.91
2023-04-30T15:01:57.504Z,97127.22
2023-04-30T15:05:58.136Z,97087.19
2023-04-30T15:09:59.036Z,97119.41
2023-04-30T15:14:01.981Z,97106.81
2023-04-30T15:18:04.216Z,97110.47
2023-04-30T15:22:04.454Z,97108.19
2023-04-30T15:26:05.522Z,97101.88
2023-04-30T15:30:12.661Z,97095.31
2023-04-30T15:34:12.930Z,97103.78
2023-04-30T15:38:13.155Z,97099.75
2023-04-30T15:42:14.041Z,97089.94
2023-04-30T15:46:17.155Z,97089.03
2023-04-30T15:50:17.628Z,97083.03
2023-04-30T15:54:18.137Z,97077.94
2023-04-30T15:58:18.760Z,97090.47
2023-04-30T16:02:22.342Z,97090.16
2023-04-30T16:06:23.150Z,97099.63
2023-04-30T16:10:23.751Z,97101.34
2023-04-30T16:14:24.258Z,97085.72
2023-04-30T16:18:30.019Z,97077.00
2023-04-30T16:22:31.091Z,97067.88
2023-04-30T16:26:31.179Z,97063.47
2023-04-30T16:30:31.966Z,97050.84
2023-04-30T16:34:35.000Z,97072.75
2023-04-30T16:38:36.072Z,97070.06
2023-04-30T16:42:38.060Z,97051.81
2023-04-30T16:46:41.397Z,97063.63
2023-04-30T16:50:44.197Z,97061.78
2023-04-30T16:54:44.419Z,97057.97
2023-04-30T16:58:44.579Z,97063.81
2023-04-30T17:02:45.867Z,97062.16
2023-04-30T17:06:49.586Z,97040.91
2023-04-30T17:10:49.872Z,97064.50
2023-04-30T17:14:50.379Z,97058.38
2023-04-30T17:18:50.575Z,97047.59
2023-04-30T17:22:53.736Z,97070.88
2023-04-30T17:26:55.250Z,97064.53
2023-04-30T17:30:56.734Z,97074.00
2023-04-30T17:34:58.066Z,97078.75
2023-04-30T17:39:04.330Z,97087.09
2023-04-30T17:43:04.903Z,97090.97
2023-04-30T17:47:05.819Z,97074.69
2023-04-30T17:51:06.856Z,97085.44
2023-04-30T17:55:11.876Z,97099.63
2023-04-30T17:59:12.807Z,97097.81
2023-04-30T18:03:13.511Z,97033.03
2023-04-30T18:07:13.868Z,97088.38
2023-04-30T18:11:17.182Z,97090.91
2023-04-30T18:15:17.604Z,97094.91
2023-04-30T18:19:18.306Z,97051.59
2023-04-30T18:23:19.014Z,97084.28
2023-04-30T18:27:22.072Z,97004.78
2023-04-30T18:31:22.721Z,97082.22
2023-04-30T18:35:23.454Z,97097.53
2023-04-30T18:39:24.168Z,97088.72
2023-04-30T18:43:27.289Z,97083.94
2023-04-30T18:47:27.844Z,97099.50
2023-04-30T18:51:28.497Z,97095.97
2023-04-30T18:55:28.908Z,97096.00
2023-04-30T18:59:32.234Z,97101.59
2023-04-30T19:03:34.152Z,97097.38
2023-04-30T19:07:35.054Z,97104.03
2023-04-30T19:11:36.342Z,97102.94
2023-04-30T19:15:39.622Z,97103.63
2023-04-30T19:19:39.952Z,97071.19
2023-04-30T19:23:40.706Z,97095.13
2023-04-30T19:27:41.241Z,97059.16
2023-04-30T19:31:44.410Z,97089.81
2023-04-30T19:35:44.982Z,97107.75
2023-04-30T19:39:46.311Z,97110.66
2023-04-30T19:43:46.590Z,97097.81
2023-04-30T19:47:49.955Z,97082.81
2023-04-30T19:51:50.542Z,97106.56
2023-04-30T19:55:52.076Z,97112.00
2023-04-30T19:59:52.887Z,97100.50
2023-04-30T20:03:56.063Z,97069.78
2023-04-30T20:07:56.504Z,97070.22
2023-04-30T20:11:58.100Z,97077.00
2023-04-30T20:15:58.897Z,97111.34
2023-04-30T20:20:03.281Z,97095.84
2023-04-30T20:24:04.739Z,97114.88
2023-04-30T20:28:05.153Z,97120.53
2023-04-30T20:32:05.692Z,97117.84
2023-04-30T20:36:08.985Z,97119.19
2023-04-30T20:40:11.863Z,97117.88
2023-04-30T20:44:13.293Z,97103.69
2023-04-30T20:48:14.300Z,97094.84
2023-04-30T20:52:18.922Z,97105.56
2023-04-30T20:56:19.555Z,97120.53
2023-04-30T21:00:20.340Z,97123.75
2023-04-30T21:04:20.905Z,97132.88
2023-04-30T21:08:24.304Z,97100.72
2023-04-30T21:12:24.594Z,97128.63
2023-04-30T21:16:24.851Z,97146.25
2023-04-30T21:20:25.036Z,97140.88
2023-04-30T21:24:27.841Z,97142.97
2023-04-30T21:28:28.142Z,97134.41
2023-04-30T21:32:28.489Z,97087.16
2023-04-30T21:36:30.288Z,97146.13
2023-04-30T21:40:34.982Z,97093.19
2023-04-30T21:44:36.319Z,97136.28
2023-04-30T21:48:38.790Z,97141.28
2023-04-30T21:52:39.038Z,97115.31
2023-04-30T21:56:42.893Z,97135.13
2023-04-30T22:00:43.666Z,97107.31
2023-04-30T22:04:43.933Z,97114.22
2023-04-30T22:08:44.416Z,97126.53
2023-04-30T22:12:48.277Z,97124.31
2023-04-30T22:16:48.661Z,97138.75
2023-04-30T22:20:52.168Z,97128.50
2023-04-30T22:24:52.615Z,97128.97
2023-04-30T22:28:55.680Z,97128.41
2023-04-30T22:32:59.265Z,97118.03
2023-04-30T22:36:59.690Z,97116.25
2023-04-30T22:41:01.345Z,97126.44
2023-04-30T22:45:04.457Z,97125.06
2023-04-30T22:49:05.665Z,97106.47
2023-04-30T22:53:06.561Z,97118.22
2023-04-30T22:57:06.791Z,97110.00
2023-04-30T23:01:09.684Z,97103.91
2023-04-30T23:05:12.067Z,97125.56
2023-04-30T23:09:13.074Z,97108.13
2023-04-30T23:13:13.298Z,97126.34
2023-04-30T23:17:16.572Z,97078.44
2023-04-30T23:21:17.141Z,97111.31
2023-04-30T23:25:17.671Z,97113.97
2023-04-30T23:29:17.906Z,97107.66
2023-04-30T23:33:20.896Z,97100.94
2023-04-30T23:37:21.235Z,97099.00
2023-04-30T23:41:21.416Z,97097.03
2023-04-30T23:45:22.574Z,97081.66
2023-04-30T23:49:25.757Z,97075.56
2023-04-30T23:53:26.714Z,97089.94
2023-04-30T23:57:28.278Z,97084.41
